sensor_id;sensor_type;location;lat;lon;timestamp;pressure;altitude;pressure_sealevel;temperature;humidity
51986;BME280;38002;53.296;6.600;2023-03-15T00:01:31;101091.78;;;2.45;80.16
51986;BME280;38002;53.296;6.600;2023-03-15T00:06:32;101105.22;;;2.45;80.23
51986;BME280;38002;53.296;6.600;2023-03-15T00:11:33;101114.31;;;2.42;80.40
51986;BME280;38002;53.296;6.600;2023-03-15T00:16:33;101103.69;;;2.28;80.96
51986;BME280;38002;53.296;6.600;2023-03-15T00:21:34;101127.38;;;2.34;80.76
51986;BME280;38002;53.296;6.600;2023-03-15T00:26:34;101138.56;;;2.28;80.89
51986;BME280;38002;53.296;6.600;2023-03-15T00:31:35;101146.03;;;2.23;81.29
51986;BME280;38002;53.296;6.600;2023-03-15T00:36:35;101159.84;;;2.17;80.75
51986;BME280;38002;53.296;6.600;2023-03-15T00:41:36;101171.00;;;2.11;81.22
51986;BME280;38002;53.296;6.600;2023-03-15T00:46:37;101184.59;;;2.08;81.78
51986;BME280;38002;53.296;6.600;2023-03-15T00:51:37;101189.94;;;2.08;81.78
51986;BME280;38002;53.296;6.600;2023-03-15T00:56:38;101209.88;;;2.04;81.51
51986;BME280;38002;53.296;6.600;2023-03-15T01:01:39;101219.56;;;2.06;80.89
51986;BME280;38002;53.296;6.600;2023-03-15T01:06:43;101216.91;;;2.06;80.81
51986;BME280;38002;53.296;6.600;2023-03-15T01:11:44;101225.59;;;2.10;80.46
51986;BME280;38002;53.296;6.600;2023-03-15T01:16:44;101231.72;;;2.12;80.77
51986;BME280;38002;53.296;6.600;2023-03-15T01:21:45;101236.13;;;2.13;80.77
51986;BME280;38002;53.296;6.600;2023-03-15T01:26:47;101242.13;;;2.16;80.03
51986;BME280;38002;53.296;6.600;2023-03-15T01:31:47;101248.28;;;2.18;80.31
51986;BME280;38002;53.296;6.600;2023-03-15T01:36:51;101261.47;;;2.21;80.86
51986;BME280;38002;53.296;6.600;2023-03-15T01:41:52;101272.00;;;2.24;81.17
51986;BME280;38002;53.296;6.600;2023-03-15T01:46:52;101277.28;;;2.26;80.53
51986;BME280;38002;53.296;6.600;2023-03-15T01:51:54;101279.03;;;2.27;80.78
51986;BME280;38002;53.296;6.600;2023-03-15T01:57:04;101286.97;;;2.28;80.60
51986;BME280;38002;53.296;6.600;2023-03-15T02:02:06;101294.16;;;2.28;80.73
51986;BME280;38002;53.296;6.600;2023-03-15T02:07:07;101301.22;;;2.29;80.43
51986;BME280;38002;53.296;6.600;2023-03-15T02:12:10;101303.06;;;2.28;80.45
51986;BME280;38002;53.296;6.600;2023-03-15T02:17:11;101309.28;;;2.29;80.95
51986;BME280;38002;53.296;6.600;2023-03-15T02:27:12;101327.09;;;2.30;80.31
51986;BME280;38002;53.296;6.600;2023-03-15T02:32:13;101340.44;;;2.32;80.07
51986;BME280;38002;53.296;6.600;2023-03-15T02:37:13;101352.13;;;2.31;80.40
51986;BME280;38002;53.296;6.600;2023-03-15T02:42:14;101359.31;;;2.30;81.03
51986;BME280;38002;53.296;6.600;2023-03-15T02:47:19;101360.25;;;2.29;80.95
51986;BME280;38002;53.296;6.600;2023-03-15T02:52:22;101367.56;;;2.27;80.34
51986;BME280;38002;53.296;6.600;2023-03-15T02:57:22;101380.41;;;2.22;81.40
51986;BME280;38002;53.296;6.600;2023-03-15T03:02:23;101376.38;;;2.15;80.68
51986;BME280;38002;53.296;6.600;2023-03-15T03:07:23;101385.94;;;2.05;80.80
51986;BME280;38002;53.296;6.600;2023-03-15T03:12:24;101390.72;;;2.00;80.72
51986;BME280;38002;53.296;6.600;2023-03-15T03:17:24;101410.94;;;1.91;80.92
51986;BME280;38002;53.296;6.600;2023-03-15T03:22:24;101422.13;;;1.83;81.50
51986;BME280;38002;53.296;6.600;2023-03-15T03:27:25;101420.78;;;1.76;81.21
51986;BME280;38002;53.296;6.600;2023-03-15T03:32:25;101436.44;;;1.68;81.30
51986;BME280;38002;53.296;6.600;2023-03-15T03:37:26;101450.97;;;1.64;81.07
51986;BME280;38002;53.296;6.600;2023-03-15T03:42:26;101470.13;;;1.58;81.90
51986;BME280;38002;53.296;6.600;2023-03-15T03:47:27;101482.91;;;1.53;81.21
51986;BME280;38002;53.296;6.600;2023-03-15T03:52:27;101493.22;;;1.45;81.95
51986;BME280;38002;53.296;6.600;2023-03-15T03:57:28;101507.75;;;1.41;82.40
51986;BME280;38002;53.296;6.600;2023-03-15T04:02:28;101515.97;;;1.38;81.87
51986;BME280;38002;53.296;6.600;2023-03-15T04:07:28;101527.78;;;1.34;81.74
51986;BME280;38002;53.296;6.600;2023-03-15T04:12:29;101531.59;;;1.30;82.02
51986;BME280;38002;53.296;6.600;2023-03-15T04:17:29;101535.81;;;1.34;82.04
51986;BME280;38002;53.296;6.600;2023-03-15T04:22:30;101541.78;;;1.39;82.42
51986;BME280;38002;53.296;6.600;2023-03-15T04:27:30;101550.88;;;1.36;82.72
51986;BME280;38002;53.296;6.600;2023-03-15T04:32:31;101554.31;;;1.38;82.80
51986;BME280;38002;53.296;6.600;2023-03-15T04:37:31;101563.59;;;1.33;82.52
51986;BME280;38002;53.296;6.600;2023-03-15T04:42:31;101563.16;;;1.25;82.18
51986;BME280;38002;53.296;6.600;2023-03-15T04:47:32;101564.44;;;1.18;83.36
51986;BME280;38002;53.296;6.600;2023-03-15T04:52:32;101561.38;;;1.08;82.80
51986;BME280;38002;53.296;6.600;2023-03-15T04:57:33;101562.59;;;1.03;83.05
51986;BME280;38002;53.296;6.600;2023-03-15T05:02:33;101574.50;;;0.97;82.69
51986;BME280;38002;53.296;6.600;2023-03-15T05:07:35;101578.38;;;0.91;82.52
51986;BME280;38002;53.296;6.600;2023-03-15T05:12:36;101586.75;;;0.85;82.36
51986;BME280;38002;53.296;6.600;2023-03-15T05:17:37;101586.19;;;0.79;82.42
51986;BME280;38002;53.296;6.600;2023-03-15T05:22:38;101591.09;;;0.71;82.41
51986;BME280;38002;53.296;6.600;2023-03-15T05:27:38;101601.28;;;0.64;82.27
51986;BME280;38002;53.296;6.600;2023-03-15T05:32:39;101611.44;;;0.58;83.02
51986;BME280;38002;53.296;6.600;2023-03-15T05:37:43;101615.38;;;0.51;81.93
51986;BME280;38002;53.296;6.600;2023-03-15T05:42:44;101632.53;;;0.47;82.22
51986;BME280;38002;53.296;6.600;2023-03-15T05:47:44;101629.94;;;0.45;82.05
51986;BME280;38002;53.296;6.600;2023-03-15T05:52:45;101643.31;;;0.45;81.95
51986;BME280;38002;53.296;6.600;2023-03-15T05:57:45;101658.41;;;0.46;82.68
51986;BME280;38002;53.296;6.600;2023-03-15T06:02:46;101677.22;;;0.44;82.66
51986;BME280;38002;53.296;6.600;2023-03-15T06:07:46;101691.63;;;0.42;82.58
51986;BME280;38002;53.296;6.600;2023-03-15T06:12:47;101690.81;;;0.40;82.87
51986;BME280;38002;53.296;6.600;2023-03-15T06:17:49;101692.84;;;0.35;82.15
51986;BME280;38002;53.296;6.600;2023-03-15T06:22:49;101684.34;;;0.27;82.76
51986;BME280;38002;53.296;6.600;2023-03-15T06:27:50;101700.72;;;0.21;83.83
51986;BME280;38002;53.296;6.600;2023-03-15T06:32:51;101701.00;;;0.15;83.72
51986;BME280;38002;53.296;6.600;2023-03-15T06:37:52;101710.13;;;0.11;84.33
51986;BME280;38002;53.296;6.600;2023-03-15T06:42:52;101711.22;;;0.07;84.75
51986;BME280;38002;53.296;6.600;2023-03-15T06:47:53;101709.47;;;0.06;84.75
51986;BME280;38002;53.296;6.600;2023-03-15T06:52:54;101712.09;;;0.07;84.71
51986;BME280;38002;53.296;6.600;2023-03-15T06:57:56;101731.44;;;0.12;85.46
51986;BME280;38002;53.296;6.600;2023-03-15T07:02:56;101735.72;;;0.16;86.40
51986;BME280;38002;53.296;6.600;2023-03-15T07:07:57;101737.06;;;0.25;86.77
51986;BME280;38002;53.296;6.600;2023-03-15T07:12:57;101737.50;;;0.34;86.53
51986;BME280;38002;53.296;6.600;2023-03-15T07:17:57;101757.31;;;0.47;85.86
51986;BME280;38002;53.296;6.600;2023-03-15T07:22:58;101754.91;;;0.60;84.83
51986;BME280;38002;53.296;6.600;2023-03-15T07:27:58;101761.41;;;0.73;84.75
51986;BME280;38002;53.296;6.600;2023-03-15T07:32:59;101775.09;;;0.84;84.95
51986;BME280;38002;53.296;6.600;2023-03-15T07:37:59;101774.22;;;1.01;84.52
51986;BME280;38002;53.296;6.600;2023-03-15T07:43:00;101773.34;;;1.18;84.60
51986;BME280;38002;53.296;6.600;2023-03-15T07:48:00;101796.31;;;1.39;84.10
51986;BME280;38002;53.296;6.600;2023-03-15T07:53:02;101804.97;;;1.61;84.17
51986;BME280;38002;53.296;6.600;2023-03-15T07:58:02;101808.06;;;1.87;86.60
51986;BME280;38002;53.296;6.600;2023-03-15T08:03:03;101822.66;;;2.14;83.07
51986;BME280;38002;53.296;6.600;2023-03-15T08:08:05;101827.16;;;2.45;84.02
51986;BME280;38002;53.296;6.600;2023-03-15T08:13:05;101821.69;;;2.78;83.39
51986;BME280;38002;53.296;6.600;2023-03-15T08:18:06;101824.31;;;3.09;82.10
51986;BME280;38002;53.296;6.600;2023-03-15T08:23:06;101826.78;;;3.42;82.50
51986;BME280;38002;53.296;6.600;2023-03-15T08:28:08;101848.09;;;3.75;81.95
51986;BME280;38002;53.296;6.600;2023-03-15T08:33:09;101845.13;;;4.07;82.13
51986;BME280;38002;53.296;6.600;2023-03-15T08:38:11;101855.75;;;4.37;81.39
51986;BME280;38002;53.296;6.600;2023-03-15T08:43:11;101857.44;;;4.67;81.04
51986;BME280;38002;53.296;6.600;2023-03-15T08:48:13;101857.94;;;5.00;80.50
51986;BME280;38002;53.296;6.600;2023-03-15T08:53:13;101862.09;;;5.31;80.23
51986;BME280;38002;53.296;6.600;2023-03-15T08:58:14;101871.97;;;5.57;79.57
51986;BME280;38002;53.296;6.600;2023-03-15T09:03:14;101867.28;;;5.86;79.50
51986;BME280;38002;53.296;6.600;2023-03-15T09:08:15;101872.47;;;6.14;78.18
51986;BME280;38002;53.296;6.600;2023-03-15T09:13:20;101873.00;;;6.45;77.50
51986;BME280;38002;53.296;6.600;2023-03-15T09:18:21;101867.81;;;6.78;77.78
51986;BME280;38002;53.296;6.600;2023-03-15T09:23:21;101872.69;;;7.09;76.91
51986;BME280;38002;53.296;6.600;2023-03-15T09:28:22;101869.84;;;7.35;76.09
51986;BME280;38002;53.296;6.600;2023-03-15T09:33:24;101864.97;;;7.51;76.50
51986;BME280;38002;53.296;6.600;2023-03-15T09:38:25;101874.03;;;7.73;74.80
51986;BME280;38002;53.296;6.600;2023-03-15T09:53:58;101896.63;;;7.96;73.00
51986;BME280;38002;53.296;6.600;2023-03-15T09:59:00;101905.88;;;8.05;72.81
51986;BME280;38002;53.296;6.600;2023-03-15T10:04:04;101899.69;;;8.03;64.91
51986;BME280;38002;53.296;6.600;2023-03-15T10:09:15;101913.28;;;8.14;nan
51986;BME280;38002;53.296;6.600;2023-03-15T10:19:50;101916.06;;;8.36;67.65
51986;BME280;38002;53.296;6.600;2023-03-15T10:25:00;101927.75;;;8.37;69.68
51986;BME280;38002;53.296;6.600;2023-03-15T10:30:14;101931.44;;;8.36;68.43
51986;BME280;38002;53.296;6.600;2023-03-15T10:35:17;101934.63;;;8.30;71.50
51986;BME280;38002;53.296;6.600;2023-03-15T10:40:58;101944.41;;;8.08;68.47
51986;BME280;38002;53.296;6.600;2023-03-15T10:46:11;101940.47;;;8.12;70.42
51986;BME280;38002;53.296;6.600;2023-03-15T10:51:19;101955.16;;;8.21;69.59
51986;BME280;38002;53.296;6.600;2023-03-15T10:56:25;101971.03;;;8.14;69.32
51986;BME280;38002;53.296;6.600;2023-03-15T11:01:28;101969.00;;;7.94;69.35
51986;BME280;38002;53.296;6.600;2023-03-15T11:11:59;101972.50;;;8.53;69.57
51986;BME280;38002;53.296;6.600;2023-03-15T11:17:01;101971.59;;;9.20;68.48
51986;BME280;38002;53.296;6.600;2023-03-15T11:22:02;101961.91;;;9.81;65.67
51986;BME280;38002;53.296;6.600;2023-03-15T11:27:05;101977.78;;;9.96;56.68
51986;BME280;38002;53.296;6.600;2023-03-15T11:32:13;101975.09;;;10.38;59.84
51986;BME280;38002;53.296;6.600;2023-03-15T11:37:16;101972.47;;;10.87;57.94
51986;BME280;38002;53.296;6.600;2023-03-15T11:42:23;101964.72;;;11.23;62.76
51986;BME280;38002;53.296;6.600;2023-03-15T11:47:41;101977.13;;;11.65;56.38
51986;BME280;38002;53.296;6.600;2023-03-15T11:52:46;101976.28;;;11.65;52.05
51986;BME280;38002;53.296;6.600;2023-03-15T11:57:47;101966.97;;;11.87;54.17
51986;BME280;38002;53.296;6.600;2023-03-15T12:02:52;101975.28;;;12.14;52.64
51986;BME280;38002;53.296;6.600;2023-03-15T12:07:57;101969.69;;;12.25;54.16
51986;BME280;38002;53.296;6.600;2023-03-15T12:13:04;101970.59;;;12.62;55.35
51986;BME280;38002;53.296;6.600;2023-03-15T12:18:05;101983.78;;;12.77;54.07
51986;BME280;38002;53.296;6.600;2023-03-15T12:28:24;101980.63;;;12.81;50.46
51986;BME280;38002;53.296;6.600;2023-03-15T12:33:25;101989.06;;;12.88;52.91
51986;BME280;38002;53.296;6.600;2023-03-15T12:38:31;101982.28;;;12.92;51.45
51986;BME280;38002;53.296;6.600;2023-03-15T12:48:34;101969.13;;;13.59;46.79
51986;BME280;38002;53.296;6.600;2023-03-15T12:53:35;101977.31;;;13.59;49.57
51986;BME280;38002;53.296;6.600;2023-03-15T12:58:38;101970.00;;;13.78;45.37
51986;BME280;38002;53.296;6.600;2023-03-15T13:03:40;101969.38;;;13.66;53.55
51986;BME280;38002;53.296;6.600;2023-03-15T13:08:56;101980.19;;;13.13;49.58
51986;BME280;38002;53.296;6.600;2023-03-15T13:24:09;102005.84;;;12.46;51.34
51986;BME280;38002;53.296;6.600;2023-03-15T13:29:11;102007.00;;;12.15;49.95
51986;BME280;38002;53.296;6.600;2023-03-15T13:34:20;101998.97;;;12.42;52.06
51986;BME280;38002;53.296;6.600;2023-03-15T13:39:24;102012.31;;;12.36;49.44
51986;BME280;38002;53.296;6.600;2023-03-15T13:44:25;102012.00;;;12.48;48.86
51986;BME280;38002;53.296;6.600;2023-03-15T13:49:30;102013.34;;;12.25;47.56
51986;BME280;38002;53.296;6.600;2023-03-15T13:54:31;102007.00;;;12.05;53.26
51986;BME280;38002;53.296;6.600;2023-03-15T14:04:55;102007.44;;;11.91;51.08
51986;BME280;38002;53.296;6.600;2023-03-15T14:10:57;102005.59;;;12.11;51.11
51986;BME280;38002;53.296;6.600;2023-03-15T14:15:35;102003.00;;;12.28;49.36
51986;BME280;38002;53.296;6.600;2023-03-15T14:20:40;102003.13;;;12.27;45.95
51986;BME280;38002;53.296;6.600;2023-03-15T14:25:41;102012.75;;;12.02;46.54
51986;BME280;38002;53.296;6.600;2023-03-15T14:30:42;102014.91;;;11.99;49.17
51986;BME280;38002;53.296;6.600;2023-03-15T14:35:52;102015.91;;;11.98;48.49
51986;BME280;38002;53.296;6.600;2023-03-15T14:40:52;102019.28;;;11.71;53.45
51986;BME280;38002;53.296;6.600;2023-03-15T14:45:53;102026.59;;;11.51;50.91
51986;BME280;38002;53.296;6.600;2023-03-15T14:50:53;102025.22;;;11.36;52.14
51986;BME280;38002;53.296;6.600;2023-03-15T14:55:54;102036.91;;;11.08;51.87
51986;BME280;38002;53.296;6.600;2023-03-15T15:00:54;102033.00;;;10.80;52.49
51986;BME280;38002;53.296;6.600;2023-03-15T15:05:57;102035.09;;;10.46;52.65
51986;BME280;38002;53.296;6.600;2023-03-15T15:10:57;102030.31;;;10.18;49.49
51986;BME280;38002;53.296;6.600;2023-03-15T15:15:58;102034.00;;;9.85;51.69
51986;BME280;38002;53.296;6.600;2023-03-15T15:21:00;102041.47;;;9.49;53.97
51986;BME280;38002;53.296;6.600;2023-03-15T15:26:02;102039.44;;;9.20;52.25
51986;BME280;38002;53.296;6.600;2023-03-15T15:31:06;102030.47;;;8.97;55.55
51986;BME280;38002;53.296;6.600;2023-03-15T15:36:09;102028.97;;;8.71;54.23
51986;BME280;38002;53.296;6.600;2023-03-15T15:41:11;102036.69;;;8.53;53.39
51986;BME280;38002;53.296;6.600;2023-03-15T15:46:12;102045.47;;;8.33;54.68
51986;BME280;38002;53.296;6.600;2023-03-15T15:56:17;102035.03;;;8.04;58.39
51986;BME280;38002;53.296;6.600;2023-03-15T16:01:17;102050.22;;;7.94;56.72
51986;BME280;38002;53.296;6.600;2023-03-15T16:06:18;102050.19;;;7.83;57.56
51986;BME280;38002;53.296;6.600;2023-03-15T16:11:19;102049.28;;;7.71;59.57
51986;BME280;38002;53.296;6.600;2023-03-15T16:16:20;102047.47;;;7.59;60.18
51986;BME280;38002;53.296;6.600;2023-03-15T16:21:24;102042.75;;;7.50;60.70
51986;BME280;38002;53.296;6.600;2023-03-15T16:26:25;102051.66;;;7.40;61.51
51986;BME280;38002;53.296;6.600;2023-03-15T16:31:26;102064.00;;;7.31;61.38
51986;BME280;38002;53.296;6.600;2023-03-15T16:36:26;102066.31;;;7.24;62.15
51986;BME280;38002;53.296;6.600;2023-03-15T16:41:27;102076.59;;;7.19;62.64
51986;BME280;38002;53.296;6.600;2023-03-15T16:46:28;102070.41;;;7.17;62.11
51986;BME280;38002;53.296;6.600;2023-03-15T16:51:28;102078.22;;;7.09;62.83
51986;BME280;38002;53.296;6.600;2023-03-15T16:56:31;102090.78;;;6.98;63.63
51986;BME280;38002;53.296;6.600;2023-03-15T17:01:31;102090.56;;;6.88;63.51
51986;BME280;38002;53.296;6.600;2023-03-15T17:06:35;102098.44;;;6.78;63.31
51986;BME280;38002;53.296;6.600;2023-03-15T17:11:39;102084.94;;;6.66;63.53
51986;BME280;38002;53.296;6.600;2023-03-15T17:16:40;102089.91;;;6.47;63.47
51986;BME280;38002;53.296;6.600;2023-03-15T17:21:41;102090.72;;;6.34;63.89
51986;BME280;38002;53.296;6.600;2023-03-15T17:26:42;102093.28;;;6.23;63.44
51986;BME280;38002;53.296;6.600;2023-03-15T17:31:42;102095.88;;;6.12;63.68
51986;BME280;38002;53.296;6.600;2023-03-15T17:36:43;102093.13;;;6.00;64.11
51986;BME280;38002;53.296;6.600;2023-03-15T17:41:45;102094.00;;;5.86;64.64
51986;BME280;38002;53.296;6.600;2023-03-15T17:46:46;102104.94;;;5.70;66.12
51986;BME280;38002;53.296;6.600;2023-03-15T17:51:47;102102.38;;;5.55;66.74
51986;BME280;38002;53.296;6.600;2023-03-15T17:56:47;102111.44;;;5.39;67.02
51986;BME280;38002;53.296;6.600;2023-03-15T18:01:48;102124.19;;;5.23;67.21
51986;BME280;38002;53.296;6.600;2023-03-15T18:06:48;102118.09;;;5.06;67.52
51986;BME280;38002;53.296;6.600;2023-03-15T18:11:49;102133.59;;;4.88;67.74
51986;BME280;38002;53.296;6.600;2023-03-15T18:16:50;102130.97;;;4.72;68.24
51986;BME280;38002;53.296;6.600;2023-03-15T18:21:50;102129.31;;;4.55;68.49
51986;BME280;38002;53.296;6.600;2023-03-15T18:26:50;102142.84;;;4.40;69.27
51986;BME280;38002;53.296;6.600;2023-03-15T18:31:51;102138.28;;;4.26;69.38
51986;BME280;38002;53.296;6.600;2023-03-15T18:36:52;102144.53;;;4.11;69.90
51986;BME280;38002;53.296;6.600;2023-03-15T18:41:52;102144.50;;;3.97;69.81
51986;BME280;38002;53.296;6.600;2023-03-15T18:46:52;102157.84;;;3.83;70.07
51986;BME280;38002;53.296;6.600;2023-03-15T18:51:53;102148.75;;;3.70;69.90
51986;BME280;38002;53.296;6.600;2023-03-15T18:56:55;102141.44;;;3.56;70.57
51986;BME280;38002;53.296;6.600;2023-03-15T19:01:55;102143.09;;;3.43;70.72
51986;BME280;38002;53.296;6.600;2023-03-15T19:06:56;102150.09;;;3.30;71.67
51986;BME280;38002;53.296;6.600;2023-03-15T19:11:56;102147.13;;;3.18;71.48
51986;BME280;38002;53.296;6.600;2023-03-15T19:16:56;102140.75;;;3.04;72.11
51986;BME280;38002;53.296;6.600;2023-03-15T19:21:57;102140.47;;;2.93;72.77
51986;BME280;38002;53.296;6.600;2023-03-15T19:26:57;102148.16;;;2.83;73.31
51986;BME280;38002;53.296;6.600;2023-03-15T19:31:58;102158.50;;;2.73;73.49
51986;BME280;38002;53.296;6.600;2023-03-15T19:36:58;102150.03;;;2.64;73.66
51986;BME280;38002;53.296;6.600;2023-03-15T19:41:59;102167.25;;;2.60;73.96
51986;BME280;38002;53.296;6.600;2023-03-15T19:46:59;102165.44;;;2.60;73.92
51986;BME280;38002;53.296;6.600;2023-03-15T19:51:59;102169.06;;;2.59;74.45
51986;BME280;38002;53.296;6.600;2023-03-15T19:57:00;102172.72;;;2.58;73.63
51986;BME280;38002;53.296;6.600;2023-03-15T20:02:00;102161.19;;;2.56;73.57
51986;BME280;38002;53.296;6.600;2023-03-15T20:07:01;102164.09;;;2.52;74.50
51986;BME280;38002;53.296;6.600;2023-03-15T20:12:01;102164.50;;;2.44;73.69
51986;BME280;38002;53.296;6.600;2023-03-15T20:17:02;102160.41;;;2.37;73.86
51986;BME280;38002;53.296;6.600;2023-03-15T20:22:02;102159.84;;;2.31;74.32
51986;BME280;38002;53.296;6.600;2023-03-15T20:27:03;102154.88;;;2.23;74.74
51986;BME280;38002;53.296;6.600;2023-03-15T20:32:03;102160.69;;;2.14;74.53
51986;BME280;38002;53.296;6.600;2023-03-15T20:37:03;102164.75;;;2.04;74.98
51986;BME280;38002;53.296;6.600;2023-03-15T20:42:04;102161.69;;;1.94;75.06
51986;BME280;38002;53.296;6.600;2023-03-15T20:47:04;102152.19;;;1.87;75.74
51986;BME280;38002;53.296;6.600;2023-03-15T20:52:05;102161.38;;;1.81;75.42
51986;BME280;38002;53.296;6.600;2023-03-15T20:57:05;102158.16;;;1.75;76.00
51986;BME280;38002;53.296;6.600;2023-03-15T21:02:08;102153.88;;;1.71;75.62
51986;BME280;38002;53.296;6.600;2023-03-15T21:07:09;102156.84;;;1.65;75.77
51986;BME280;38002;53.296;6.600;2023-03-15T21:12:10;102152.72;;;1.58;76.98
51986;BME280;38002;53.296;6.600;2023-03-15T21:17:10;102137.72;;;1.54;76.69
51986;BME280;38002;53.296;6.600;2023-03-15T21:22:13;102135.06;;;1.54;77.50
51986;BME280;38002;53.296;6.600;2023-03-15T21:27:14;102133.25;;;1.54;77.95
51986;BME280;38002;53.296;6.600;2023-03-15T21:32:15;102142.00;;;1.58;77.16
51986;BME280;38002;53.296;6.600;2023-03-15T21:37:16;102133.91;;;1.59;76.97
51986;BME280;38002;53.296;6.600;2023-03-15T21:42:16;102131.06;;;1.62;77.16
51986;BME280;38002;53.296;6.600;2023-03-15T21:47:17;102116.72;;;1.63;77.56
51986;BME280;38002;53.296;6.600;2023-03-15T21:52:18;102111.19;;;1.66;76.97
51986;BME280;38002;53.296;6.600;2023-03-15T21:57:19;102121.75;;;1.69;76.63
51986;BME280;38002;53.296;6.600;2023-03-15T22:02:21;102132.44;;;1.71;76.98
51986;BME280;38002;53.296;6.600;2023-03-15T22:07:21;102112.78;;;1.70;76.50
51986;BME280;38002;53.296;6.600;2023-03-15T22:12:21;102124.31;;;1.72;76.78
51986;BME280;38002;53.296;6.600;2023-03-15T22:17:24;102117.06;;;1.74;75.86
51986;BME280;38002;53.296;6.600;2023-03-15T22:22:24;102119.56;;;1.77;75.93
51986;BME280;38002;53.296;6.600;2023-03-15T22:27:25;102104.28;;;1.79;75.03
51986;BME280;38002;53.296;6.600;2023-03-15T22:32:26;102101.22;;;1.87;74.11
51986;BME280;38002;53.296;6.600;2023-03-15T22:37:26;102089.28;;;1.94;74.52
51986;BME280;38002;53.296;6.600;2023-03-15T22:42:26;102106.06;;;1.98;73.78
51986;BME280;38002;53.296;6.600;2023-03-15T22:47:26;102088.06;;;2.00;74.28
51986;BME280;38002;53.296;6.600;2023-03-15T22:52:27;102103.00;;;2.05;74.34
51986;BME280;38002;53.296;6.600;2023-03-15T22:57:27;102103.69;;;2.09;74.09
51986;BME280;38002;53.296;6.600;2023-03-15T23:02:28;102102.59;;;2.13;73.35
51986;BME280;38002;53.296;6.600;2023-03-15T23:07:28;102099.75;;;2.16;72.94
51986;BME280;38002;53.296;6.600;2023-03-15T23:12:29;102096.06;;;2.18;73.86
51986;BME280;38002;53.296;6.600;2023-03-15T23:17:30;102096.69;;;2.23;73.02
51986;BME280;38002;53.296;6.600;2023-03-15T23:22:30;102089.41;;;2.25;73.27
51986;BME280;38002;53.296;6.600;2023-03-15T23:27:30;102103.53;;;2.29;73.18
51986;BME280;38002;53.296;6.600;2023-03-15T23:32:31;102090.94;;;2.31;72.98
51986;BME280;38002;53.296;6.600;2023-03-15T23:37:31;102099.75;;;2.33;73.50
51986;BME280;38002;53.296;6.600;2023-03-15T23:42:32;102102.38;;;2.35;73.25
51986;BME280;38002;53.296;6.600;2023-03-15T23:47:32;102104.03;;;2.37;72.10
51986;BME280;38002;53.296;6.600;2023-03-15T23:52:33;102085.00;;;2.42;72.20
51986;BME280;38002;53.296;6.600;2023-03-15T23:57:33;102082.22;;;2.43;72.79
